createdAt,value
2022-08-03T00:00:51.521Z,3.70
2022-08-03T00:03:40.467Z,4.43
2022-08-03T00:06:35.025Z,3.53
2022-08-03T00:09:25.419Z,4.00
2022-08-03T00:12:24.131Z,3.73
2022-08-03T00:15:16.515Z,3.67
2022-08-03T00:18:05.627Z,3.07
2022-08-03T00:20:54.209Z,3.70
2022-08-03T00:23:52.219Z,4.17
2022-08-03T00:26:41.152Z,3.50
2022-08-03T00:29:29.732Z,3.90
2022-08-03T00:32:18.213Z,3.90
2022-08-03T00:35:18.072Z,4.00
2022-08-03T00:38:17.846Z,3.60
2022-08-03T00:41:07.775Z,4.80
2022-08-03T00:43:56.283Z,3.73
2022-08-03T00:46:45.129Z,3.83
2022-08-03T00:49:33.712Z,4.07
2022-08-03T00:52:22.494Z,4.27
2022-08-03T00:55:11.993Z,4.70
2022-08-03T00:58:05.045Z,3.93
2022-08-03T01:00:53.702Z,4.03
2022-08-03T01:03:42.772Z,4.40
2022-08-03T01:06:37.297Z,4.23
2022-08-03T01:09:34.656Z,4.60
2022-08-03T01:12:26.342Z,3.60
2022-08-03T01:15:22.782Z,4.37
2022-08-03T01:18:16.108Z,4.60
2022-08-03T01:21:09.959Z,3.97
2022-08-03T01:24:16.319Z,4.70
2022-08-03T01:27:08.726Z,4.70
2022-08-03T01:30:05.700Z,4.80
2022-08-03T01:33:00.833Z,4.63
2022-08-03T01:35:53.497Z,5.00
2022-08-03T01:38:44.808Z,4.23
2022-08-03T01:41:41.461Z,4.70
2022-08-03T01:44:32.240Z,4.70
2022-08-03T01:47:23.935Z,4.00
2022-08-03T01:50:13.549Z,5.07
2022-08-03T01:53:03.422Z,4.87
2022-08-03T01:55:55.692Z,4.13
2022-08-03T01:58:46.889Z,4.93
2022-08-03T02:02:16.013Z,4.07
2022-08-03T02:04:48.330Z,4.40
2022-08-03T02:07:37.622Z,4.57
2022-08-03T02:10:34.477Z,4.73
2022-08-03T02:13:25.438Z,4.63
2022-08-03T02:16:14.956Z,4.97
2022-08-03T02:19:06.420Z,4.60
2022-08-03T02:22:10.643Z,5.17
2022-08-03T02:24:59.240Z,5.43
2022-08-03T02:27:52.831Z,4.70
2022-08-03T02:30:44.176Z,4.43
2022-08-03T02:33:35.503Z,4.50
2022-08-03T02:36:28.439Z,5.03
2022-08-03T02:39:23.216Z,4.23
2022-08-03T02:42:13.926Z,4.67
2022-08-03T02:45:05.481Z,4.47
2022-08-03T02:47:58.296Z,4.40
2022-08-03T02:50:48.083Z,4.80
2022-08-03T02:53:37.361Z,4.37
2022-08-03T02:56:28.025Z,4.73
2022-08-03T02:59:18.455Z,4.43
2022-08-03T03:02:07.158Z,4.70
2022-08-03T03:05:52.534Z,4.60
2022-08-03T03:08:06.114Z,5.00
2022-08-03T03:11:09.008Z,5.10
2022-08-03T03:13:59.725Z,4.67
2022-08-03T03:16:51.821Z,4.47
2022-08-03T03:19:46.485Z,4.90
2022-08-03T03:22:35.231Z,4.90
2022-08-03T03:25:23.772Z,4.60
2022-08-03T03:28:12.471Z,4.50
2022-08-03T03:31:02.623Z,4.90
2022-08-03T03:33:51.279Z,4.20
2022-08-03T03:36:40.905Z,4.40
2022-08-03T03:39:29.670Z,4.60
2022-08-03T03:42:18.220Z,4.73
2022-08-03T03:45:08.118Z,5.10
2022-08-03T03:47:58.059Z,4.87
2022-08-03T03:50:46.828Z,5.00
2022-08-03T03:53:35.399Z,4.70
2022-08-03T03:56:24.191Z,5.10
2022-08-03T03:59:12.699Z,4.90
2022-08-03T04:02:01.298Z,5.30
2022-08-03T04:05:08.754Z,4.57
2022-08-03T04:08:17.611Z,5.50
2022-08-03T04:11:12.709Z,5.10
2022-08-03T04:14:04.402Z,5.57
2022-08-03T04:16:56.339Z,5.50
2022-08-03T04:19:47.712Z,5.37
2022-08-03T04:22:39.666Z,5.30
2022-08-03T04:25:30.295Z,5.80
2022-08-03T04:28:30.530Z,5.00
2022-08-03T04:31:23.574Z,5.10
2022-08-03T04:34:12.209Z,5.07
2022-08-03T04:37:03.089Z,4.70
2022-08-03T04:39:56.956Z,5.50
2022-08-03T04:42:46.976Z,5.60
2022-08-03T04:45:35.902Z,4.90
2022-08-03T04:48:25.277Z,5.40
2022-08-03T04:51:14.460Z,5.40
2022-08-03T04:54:03.031Z,5.40
2022-08-03T04:56:52.961Z,5.30
2022-08-03T04:59:41.540Z,4.90
2022-08-03T05:02:30.550Z,5.40
2022-08-03T05:05:19.173Z,5.63
2022-08-03T05:08:11.177Z,4.40
2022-08-03T05:10:59.873Z,4.70
2022-08-03T05:13:49.738Z,5.23
2022-08-03T05:16:38.341Z,5.20
2022-08-03T05:19:26.930Z,5.43
2022-08-03T05:22:15.630Z,4.60
2022-08-03T05:25:05.222Z,4.00
2022-08-03T05:27:53.841Z,5.23
2022-08-03T05:30:43.758Z,4.60
2022-08-03T05:33:32.467Z,4.57
2022-08-03T05:36:20.974Z,4.70
2022-08-03T05:39:09.568Z,4.37
2022-08-03T05:41:58.104Z,3.80
2022-08-03T05:44:46.672Z,4.20
2022-08-03T05:47:36.516Z,4.40
2022-08-03T05:50:25.092Z,4.13
2022-08-03T05:53:13.658Z,3.70
2022-08-03T05:56:02.766Z,3.90
2022-08-03T05:59:22.464Z,4.10
2022-08-03T06:02:10.603Z,4.10
2022-08-03T06:05:00.517Z,3.63
2022-08-03T06:07:49.099Z,4.73
2022-08-03T06:10:38.332Z,3.73
2022-08-03T06:13:27.143Z,3.97
2022-08-03T06:16:15.786Z,3.50
2022-08-03T06:19:04.323Z,3.73
2022-08-03T06:21:54.321Z,3.80
2022-08-03T06:24:48.177Z,3.57
2022-08-03T06:27:42.425Z,3.73
2022-08-03T06:30:31.082Z,2.90
2022-08-03T06:33:19.672Z,3.57
2022-08-03T06:36:08.467Z,3.40
2022-08-03T06:39:02.187Z,3.30
2022-08-03T06:41:50.795Z,3.60
2022-08-03T06:44:39.721Z,3.73
2022-08-03T06:47:28.460Z,3.63
2022-08-03T06:50:18.520Z,3.20
2022-08-03T06:53:10.319Z,3.57
2022-08-03T06:56:09.836Z,3.27
2022-08-03T06:58:58.337Z,3.57
2022-08-03T07:01:47.066Z,3.40
2022-08-03T07:04:35.648Z,3.23
2022-08-03T07:07:24.156Z,3.40
2022-08-03T07:10:12.789Z,3.43
2022-08-03T07:13:02.742Z,3.63
2022-08-03T07:15:55.728Z,3.10
2022-08-03T07:18:45.051Z,3.47
2022-08-03T07:21:33.648Z,3.33
2022-08-03T07:24:22.192Z,3.83
2022-08-03T07:27:10.977Z,3.13
2022-08-03T07:30:00.923Z,3.50
2022-08-03T07:32:50.813Z,3.13
2022-08-03T07:35:39.522Z,3.43
2022-08-03T07:38:28.131Z,3.37
2022-08-03T07:41:16.990Z,3.60
2022-08-03T07:44:05.976Z,3.20
2022-08-03T07:46:55.941Z,2.90
2022-08-03T07:49:45.405Z,3.00
2022-08-03T07:52:49.456Z,3.20
2022-08-03T07:55:38.146Z,3.10
2022-08-03T07:58:26.666Z,3.30
2022-08-03T08:01:15.361Z,3.27
2022-08-03T08:04:05.639Z,3.00
2022-08-03T08:06:54.211Z,3.57
2022-08-03T08:09:42.796Z,3.30
2022-08-03T08:12:31.372Z,3.90
2022-08-03T08:15:20.073Z,3.60
2022-08-03T08:18:08.618Z,3.90
2022-08-03T08:20:58.821Z,3.37
2022-08-03T08:23:56.235Z,5.50
2022-08-03T08:26:46.490Z,4.97
2022-08-03T08:29:35.066Z,4.17
2022-08-03T08:32:23.640Z,3.73
2022-08-03T08:35:12.741Z,3.40
2022-08-03T08:38:05.733Z,3.60
2022-08-03T08:40:56.682Z,3.30
2022-08-03T08:43:45.238Z,3.40
2022-08-03T08:46:34.550Z,3.27
2022-08-03T08:49:25.014Z,3.27
2022-08-03T08:52:25.477Z,3.10
2022-08-03T08:55:23.436Z,3.30
2022-08-03T08:58:13.028Z,3.13
2022-08-03T09:01:10.188Z,3.23
2022-08-03T09:03:58.794Z,3.17
2022-08-03T09:07:04.717Z,4.00
2022-08-03T09:10:05.354Z,3.23
2022-08-03T09:13:02.563Z,3.03
2022-08-03T09:16:10.683Z,2.90
2022-08-03T09:19:13.502Z,3.03
2022-08-03T09:22:09.677Z,2.80
2022-08-03T09:25:22.656Z,2.77
2022-08-03T09:28:11.449Z,2.93
2022-08-03T09:31:01.171Z,3.20
2022-08-03T09:33:50.032Z,2.93
2022-08-03T09:36:40.423Z,3.87
2022-08-03T09:39:41.067Z,3.00
2022-08-03T09:42:30.833Z,2.80
2022-08-03T09:45:28.861Z,3.00
2022-08-03T09:48:25.224Z,3.20
2022-08-03T09:52:04.994Z,2.70
2022-08-03T09:54:27.723Z,2.67
2022-08-03T09:57:23.877Z,4.77
2022-08-03T10:00:14.835Z,2.60
2022-08-03T10:03:06.464Z,2.80
2022-08-03T10:05:59.597Z,2.40
2022-08-03T10:08:48.867Z,3.00
2022-08-03T10:11:41.830Z,2.60
2022-08-03T10:14:32.503Z,2.70
2022-08-03T10:17:21.409Z,2.30
2022-08-03T10:20:12.862Z,2.40
2022-08-03T10:23:01.464Z,2.27
2022-08-03T10:25:54.154Z,2.50
2022-08-03T10:28:48.607Z,2.83
2022-08-03T10:31:55.894Z,2.43
2022-08-03T10:34:48.335Z,2.63
2022-08-03T10:37:56.551Z,2.53
2022-08-03T10:40:49.448Z,2.73
2022-08-03T10:43:44.933Z,2.33
2022-08-03T10:46:34.862Z,2.50
2022-08-03T10:49:34.043Z,2.23
2022-08-03T10:52:33.768Z,2.27
2022-08-03T10:55:53.105Z,2.63
2022-08-03T10:58:57.120Z,2.87
2022-08-03T11:01:59.902Z,2.27
2022-08-03T11:05:28.437Z,2.57
2022-08-03T11:08:25.455Z,2.27
2022-08-03T11:11:29.372Z,2.43
2022-08-03T11:14:21.354Z,4.60
2022-08-03T11:17:14.416Z,2.50
2022-08-03T11:20:05.037Z,2.40
2022-08-03T11:22:56.695Z,2.17
2022-08-03T11:26:10.749Z,2.13
2022-08-03T11:29:30.818Z,2.17
2022-08-03T11:32:53.034Z,2.43
2022-08-03T11:35:59.493Z,2.63
2022-08-03T11:39:13.497Z,2.30
2022-08-03T11:42:38.789Z,2.30
2022-08-03T11:45:29.001Z,2.67
2022-08-03T11:48:18.095Z,2.30
2022-08-03T11:51:08.139Z,2.37
2022-08-03T11:53:57.650Z,2.30
2022-08-03T11:56:48.280Z,1.90
2022-08-03T11:59:38.768Z,2.13
2022-08-03T12:02:28.930Z,2.20
2022-08-03T12:05:18.970Z,2.30
2022-08-03T12:08:08.129Z,2.27
2022-08-03T12:10:58.111Z,2.50
2022-08-03T12:14:45.802Z,2.10
2022-08-03T12:16:56.529Z,2.10
2022-08-03T12:19:46.531Z,2.30
2022-08-03T12:22:37.197Z,2.83
2022-08-03T12:25:39.383Z,2.50
2022-08-03T12:28:37.021Z,2.30
2022-08-03T12:31:26.897Z,2.17
2022-08-03T12:34:15.565Z,1.90
2022-08-03T12:37:22.003Z,2.50
2022-08-03T12:40:20.601Z,2.40
2022-08-03T12:43:14.735Z,2.10
2022-08-03T12:46:11.140Z,2.13
2022-08-03T12:49:09.635Z,2.40
2022-08-03T12:52:03.864Z,2.10
2022-08-03T12:54:57.745Z,2.20
2022-08-03T12:57:46.219Z,2.10
2022-08-03T13:00:35.278Z,2.50
2022-08-03T13:03:41.808Z,2.50
2022-08-03T13:06:31.414Z,2.43
2022-08-03T13:09:20.046Z,2.37
2022-08-03T13:12:12.744Z,2.53
2022-08-03T13:15:01.932Z,2.40
2022-08-03T13:17:50.464Z,2.23
2022-08-03T13:20:39.008Z,2.10
2022-08-03T13:23:27.544Z,2.40
2022-08-03T13:26:16.205Z,2.53
2022-08-03T13:29:06.260Z,2.33
2022-08-03T13:31:54.905Z,2.00
2022-08-03T13:34:43.613Z,2.60
2022-08-03T13:37:33.002Z,2.43
2022-08-03T13:40:23.582Z,2.57
2022-08-03T13:43:12.651Z,2.30
2022-08-03T13:46:02.646Z,2.47
2022-08-03T13:48:51.195Z,2.53
2022-08-03T13:51:40.229Z,2.70
2022-08-03T13:54:30.039Z,2.13
2022-08-03T13:58:11.389Z,2.13
2022-08-03T14:00:29.535Z,2.50
2022-08-03T14:03:19.745Z,2.60
2022-08-03T14:06:08.636Z,1.90
2022-08-03T14:09:00.570Z,2.20
2022-08-03T14:12:08.336Z,2.33
2022-08-03T14:14:59.754Z,2.60
2022-08-03T14:17:50.303Z,2.10
2022-08-03T14:20:50.019Z,2.83
2022-08-03T14:23:42.950Z,2.37
2022-08-03T14:26:33.289Z,2.70
2022-08-03T14:29:21.865Z,2.43
2022-08-03T14:32:13.290Z,2.20
2022-08-03T14:35:02.210Z,2.30
2022-08-03T14:37:52.740Z,2.10
2022-08-03T14:40:41.458Z,2.20
2022-08-03T14:43:33.727Z,2.27
2022-08-03T14:46:22.872Z,1.90
2022-08-03T14:50:33.225Z,2.00
2022-08-03T14:52:19.921Z,2.23
2022-08-03T14:55:10.958Z,2.23
2022-08-03T14:58:02.532Z,2.60
2022-08-03T15:00:51.946Z,1.97
2022-08-03T15:03:41.093Z,2.60
2022-08-03T15:06:29.820Z,2.30
2022-08-03T15:09:23.891Z,2.40
2022-08-03T15:12:14.141Z,2.70
2022-08-03T15:15:02.644Z,2.53
2022-08-03T15:18:00.035Z,2.20
2022-08-03T15:20:50.733Z,2.07
2022-08-03T15:23:39.427Z,2.03
2022-08-03T15:26:35.229Z,2.17
2022-08-03T15:30:05.207Z,2.50
2022-08-03T15:32:36.238Z,4.90
2022-08-03T15:35:24.811Z,3.53
2022-08-03T15:38:13.325Z,2.43
2022-08-03T15:41:01.839Z,2.30
2022-08-03T15:43:52.703Z,2.57
2022-08-03T15:46:42.612Z,2.40
2022-08-03T15:49:31.112Z,2.10
2022-08-03T15:52:19.748Z,2.30
2022-08-03T15:55:09.674Z,2.50
2022-08-03T15:59:10.513Z,2.70
2022-08-03T16:01:17.727Z,2.60
2022-08-03T16:04:09.503Z,2.40
2022-08-03T16:06:58.088Z,2.40
2022-08-03T16:09:46.588Z,2.30
2022-08-03T16:12:35.157Z,2.37
2022-08-03T16:15:23.797Z,2.60
2022-08-03T16:18:12.382Z,2.30
2022-08-03T16:21:02.327Z,2.30
2022-08-03T16:23:50.989Z,2.50
2022-08-03T16:26:39.764Z,2.30
2022-08-03T16:29:28.331Z,2.40
2022-08-03T16:32:17.208Z,2.30
2022-08-03T16:35:06.780Z,2.43
2022-08-03T16:37:57.108Z,2.27
2022-08-03T16:40:45.796Z,2.30
2022-08-03T16:43:35.664Z,2.27
2022-08-03T16:46:24.385Z,2.00
2022-08-03T16:49:13.199Z,2.37
2022-08-03T16:52:21.781Z,2.10
2022-08-03T16:55:15.628Z,2.10
2022-08-03T16:58:04.845Z,2.20
2022-08-03T17:00:54.043Z,2.30
2022-08-03T17:04:01.765Z,2.00
2022-08-03T17:06:52.562Z,2.60
2022-08-03T17:09:41.102Z,3.00
2022-08-03T17:12:31.075Z,3.60
2022-08-03T17:15:20.053Z,6.43
2022-08-03T17:18:29.678Z,2.80
2022-08-03T17:21:19.124Z,2.23
2022-08-03T17:24:12.023Z,4.50
2022-08-03T17:27:03.176Z,4.10
2022-08-03T17:29:59.752Z,2.20
2022-08-03T17:32:56.960Z,2.17
2022-08-03T17:35:47.823Z,2.63
2022-08-03T17:38:39.926Z,2.30
2022-08-03T17:41:33.469Z,3.27
2022-08-03T17:44:31.954Z,3.40
2022-08-03T17:47:42.948Z,2.70
2022-08-03T17:50:37.782Z,2.57
2022-08-03T17:53:30.787Z,2.60
2022-08-03T17:56:38.825Z,2.53
2022-08-03T17:59:50.565Z,2.50
2022-08-03T18:03:05.059Z,2.00
2022-08-03T18:06:08.989Z,2.00
2022-08-03T18:09:05.243Z,2.20
2022-08-03T18:12:15.246Z,1.97
2022-08-03T18:15:08.434Z,2.00
2022-08-03T18:18:10.437Z,2.50
2022-08-03T18:21:04.636Z,2.23
2022-08-03T18:23:56.381Z,2.20
2022-08-03T18:26:49.722Z,2.13
2022-08-03T18:29:38.632Z,2.53
2022-08-03T18:32:28.059Z,2.50
2022-08-03T18:35:17.967Z,2.10
2022-08-03T18:38:10.346Z,2.50
2022-08-03T18:40:58.989Z,2.10
2022-08-03T18:44:08.348Z,2.10
2022-08-03T18:47:16.388Z,3.00
2022-08-03T18:50:14.532Z,2.73
2022-08-03T18:53:16.422Z,2.70
2022-08-03T18:56:13.427Z,2.80
2022-08-03T18:59:11.519Z,2.27
2022-08-03T19:02:09.251Z,2.40
2022-08-03T19:05:05.054Z,2.73
2022-08-03T19:07:59.789Z,2.37
2022-08-03T19:11:00.474Z,2.20
2022-08-03T19:13:50.851Z,2.40
2022-08-03T19:16:41.932Z,3.00
2022-08-03T19:19:44.470Z,2.47
2022-08-03T19:22:33.940Z,3.13
2022-08-03T19:25:34.267Z,2.67
2022-08-03T19:28:29.961Z,3.00
2022-08-03T19:31:18.860Z,2.30
2022-08-03T19:34:09.501Z,2.93
2022-08-03T19:37:00.028Z,2.40
2022-08-03T19:39:56.547Z,2.27
2022-08-03T19:42:48.303Z,2.60
2022-08-03T19:46:04.485Z,2.60
2022-08-03T19:48:53.948Z,2.80
2022-08-03T19:52:00.594Z,2.30
2022-08-03T19:54:54.618Z,2.90
2022-08-03T19:57:45.880Z,2.27
2022-08-03T20:00:37.070Z,2.20
2022-08-03T20:03:43.112Z,2.73
2022-08-03T20:06:32.688Z,2.43
2022-08-03T20:09:21.809Z,2.90
2022-08-03T20:12:11.629Z,2.53
2022-08-03T20:15:00.886Z,2.77
2022-08-03T20:17:55.965Z,2.60
2022-08-03T20:20:51.513Z,2.70
2022-08-03T20:23:41.145Z,2.50
2022-08-03T20:26:53.763Z,3.27
2022-08-03T20:30:06.583Z,2.80
2022-08-03T20:32:55.432Z,2.60
2022-08-03T20:35:45.976Z,3.07
2022-08-03T20:38:43.609Z,2.37
2022-08-03T20:41:32.515Z,2.87
2022-08-03T20:47:29.709Z,2.90
2022-08-03T20:50:22.004Z,3.00
2022-08-03T20:53:12.074Z,2.97
2022-08-03T20:56:02.950Z,2.90
2022-08-03T20:58:52.255Z,2.40
2022-08-03T21:01:40.774Z,3.00
2022-08-03T21:04:33.007Z,2.60
2022-08-03T21:07:23.069Z,2.30
2022-08-03T21:10:15.388Z,2.87
2022-08-03T21:13:07.319Z,2.57
2022-08-03T21:13:18.147Z,2.80
2022-08-03T21:16:13.743Z,2.70
2022-08-03T21:19:04.867Z,2.63
2022-08-03T21:21:53.944Z,2.80
2022-08-03T21:24:43.219Z,3.13
2022-08-03T21:27:32.553Z,2.67
2022-08-03T21:30:23.580Z,2.83
2022-08-03T21:33:12.122Z,2.70
2022-08-03T21:36:01.831Z,2.70
2022-08-03T21:38:55.946Z,3.33
2022-08-03T21:41:45.466Z,2.77
2022-08-03T21:44:34.045Z,2.50
2022-08-03T21:47:25.792Z,2.77
2022-08-03T21:50:15.164Z,2.40
2022-08-03T21:53:04.976Z,3.10
2022-08-03T21:55:56.532Z,3.10
2022-08-03T21:58:50.965Z,2.70
2022-08-03T22:01:42.727Z,2.80
2022-08-03T22:04:45.872Z,3.27
2022-08-03T22:07:41.743Z,3.10
2022-08-03T22:10:30.359Z,2.50
2022-08-03T22:13:44.249Z,2.37
2022-08-03T22:16:27.826Z,2.70
2022-08-03T22:19:16.307Z,2.57
2022-08-03T22:22:07.577Z,2.40
2022-08-03T22:24:59.337Z,2.90
2022-08-03T22:27:48.164Z,2.60
2022-08-03T22:30:37.318Z,3.50
2022-08-03T22:33:28.039Z,2.93
2022-08-03T22:36:20.091Z,3.17
2022-08-03T22:39:10.030Z,2.90
2022-08-03T22:41:59.105Z,2.37
2022-08-03T22:44:50.471Z,2.83
2022-08-03T22:47:40.963Z,2.97
2022-08-03T22:50:33.429Z,2.73
2022-08-03T22:53:23.153Z,3.00
2022-08-03T22:56:13.089Z,3.33
2022-08-03T22:59:01.580Z,2.53
2022-08-03T23:02:20.211Z,2.70
2022-08-03T23:05:11.040Z,3.37
2022-08-03T23:08:22.604Z,3.10
2022-08-03T23:11:11.758Z,3.37
2022-08-03T23:14:01.791Z,3.13
2022-08-03T23:16:54.953Z,3.03
2022-08-03T23:19:44.759Z,4.20
2022-08-03T23:22:34.067Z,3.00
2022-08-03T23:25:24.594Z,2.77
2022-08-03T23:28:15.440Z,3.33
2022-08-03T23:31:05.540Z,3.10
2022-08-03T23:34:16.639Z,3.00
2022-08-03T23:37:06.773Z,3.13
2022-08-03T23:39:56.043Z,2.83
2022-08-03T23:42:45.364Z,3.00
2022-08-03T23:45:35.992Z,2.70
2022-08-03T23:48:26.144Z,3.43
2022-08-03T23:51:20.903Z,2.90
2022-08-03T23:54:18.479Z,3.17
2022-08-03T23:57:10.364Z,2.80
